Time;durP1;ratioP1;P1;durP2;ratioP2;P2;SDS_P1;SDS_P2;PMS_P1;PMS_P2;Temp;Humidity;BMP_temperature;BMP_pressure;BME280_temperature;BME280_humidity;BME280_pressure;Samples;Min_cycle;Max_cycle;Signal;HPM_P1;HPM_P2
2023/10/06 00:02:28;;;;;;;11.60;6.27;;;13.10;99.90;;;;;;4986887;28;20691;-52
2023/10/06 00:05:00;;;;;;;9.90;6.00;;;13.10;99.90;;;;;;4981903;28;20238;-54
2023/10/06 00:07:29;;;;;;;11.03;6.27;;;13.10;99.90;;;;;;4980344;28;20819;-52
2023/10/06 00:09:59;;;;;;;13.33;5.93;;;13.10;99.90;;;;;;4984406;28;20212;-53
2023/10/06 00:12:31;;;;;;;12.10;5.83;;;13.10;99.90;;;;;;4987629;28;20302;-53
2023/10/06 00:15:07;;;;;;;17.37;6.30;;;13.00;99.90;;;;;;4995651;28;20223;-52
2023/10/06 00:17:36;;;;;;;8.47;6.03;;;13.00;99.90;;;;;;4984748;28;20233;-54
2023/10/06 00:20:21;;;;;;;13.70;6.20;;;13.00;99.90;;;;;;4983180;28;20707;-52
2023/10/06 00:22:50;;;;;;;8.80;5.57;;;13.00;99.90;;;;;;4987008;28;20230;-53
2023/10/06 00:25:24;;;;;;;13.40;6.60;;;13.00;99.90;;;;;;4990729;28;20191;-52
2023/10/06 00:27:52;;;;;;;10.67;6.50;;;13.00;99.90;;;;;;4989653;28;20258;-54
2023/10/06 00:30:22;;;;;;;13.10;6.50;;;13.00;99.90;;;;;;4987043;28;20270;-54
2023/10/06 00:32:51;;;;;;;9.00;5.73;;;13.10;99.90;;;;;;4982811;28;20234;-52
2023/10/06 00:35:30;;;;;;;12.10;5.83;;;13.10;99.90;;;;;;4979490;28;20246;-54
2023/10/06 00:38:12;;;;;;;13.63;6.13;;;13.10;99.90;;;;;;4980229;28;20281;-53
2023/10/06 00:40:45;;;;;;;10.50;6.07;;;13.10;99.90;;;;;;4986094;28;20223;-51
2023/10/06 00:43:16;;;;;;;13.10;5.87;;;13.10;99.90;;;;;;4987196;28;20255;-52
2023/10/06 00:45:47;;;;;;;10.77;5.87;;;13.00;99.90;;;;;;4984447;28;20231;-53
2023/10/06 00:48:15;;;;;;;10.90;5.70;;;13.00;99.90;;;;;;4997571;28;20214;-53
2023/10/06 00:50:45;;;;;;;12.03;5.60;;;13.00;99.90;;;;;;4979918;28;20224;-53
2023/10/06 00:53:15;;;;;;;12.40;5.90;;;13.00;99.90;;;;;;4982596;28;20215;-53
2023/10/06 00:55:44;;;;;;;8.60;5.63;;;13.00;99.90;;;;;;4983637;28;20234;-53
2023/10/06 00:58:13;;;;;;;11.20;5.53;;;13.00;99.90;;;;;;4981310;28;20219;-53
2023/10/06 01:00:41;;;;;;;10.87;5.40;;;13.00;99.90;;;;;;4984682;28;20300;-52
2023/10/06 01:03:14;;;;;;;11.73;5.17;;;13.00;99.90;;;;;;4985857;28;20333;-51
2023/10/06 01:05:46;;;;;;;14.17;5.00;;;13.00;99.90;;;;;;4978664;28;20230;-53
2023/10/06 01:08:16;;;;;;;13.53;5.50;;;13.00;99.90;;;;;;4984288;28;20231;-54
2023/10/06 01:10:51;;;;;;;9.10;5.10;;;13.00;99.90;;;;;;4981022;28;20767;-54
2023/10/06 01:13:20;;;;;;;14.30;5.23;;;13.00;99.90;;;;;;4980036;28;20187;-53
2023/10/06 01:15:49;;;;;;;7.37;4.60;;;13.00;99.90;;;;;;4982782;28;20529;-53
2023/10/06 01:18:25;;;;;;;9.13;4.90;;;13.00;99.90;;;;;;4985246;28;20747;-53
2023/10/06 01:20:55;;;;;;;6.37;4.60;;;13.10;99.90;;;;;;4980378;28;20215;-53
2023/10/06 01:23:27;;;;;;;6.33;4.60;;;13.10;99.90;;;;;;4986407;28;20230;-53
2023/10/06 01:25:59;;;;;;;7.33;5.00;;;13.10;99.90;;;;;;4981910;28;20235;-54
2023/10/06 01:28:28;;;;;;;6.63;4.87;;;13.00;99.90;;;;;;4983383;28;20286;-50
2023/10/06 01:30:57;;;;;;;7.67;4.70;;;13.00;99.90;;;;;;4986187;28;20223;-53
2023/10/06 01:33:30;;;;;;;8.73;5.07;;;13.00;99.90;;;;;;4984093;28;20227;-54
2023/10/06 01:35:59;;;;;;;5.37;4.83;;;13.10;99.90;;;;;;5003092;28;20244;-54
2023/10/06 01:38:29;;;;;;;10.37;5.03;;;13.00;99.90;;;;;;4986009;28;20223;-53
2023/10/06 01:41:02;;;;;;;10.20;4.67;;;13.00;99.90;;;;;;4980154;28;20656;-52
2023/10/06 01:43:33;;;;;;;5.13;4.10;;;13.10;99.90;;;;;;4988958;28;20191;-53
2023/10/06 01:46:01;;;;;;;11.33;4.73;;;13.10;99.90;;;;;;4987178;28;20238;-54
2023/10/06 01:48:31;;;;;;;8.47;4.53;;;13.10;99.90;;;;;;4982264;28;20211;-52
2023/10/06 01:50:59;;;;;;;8.67;4.63;;;13.00;99.90;;;;;;4985873;28;20230;-53
2023/10/06 01:53:33;;;;;;;7.73;4.30;;;13.10;99.90;;;;;;4987373;28;20229;-52
2023/10/06 01:56:06;;;;;;;9.23;4.80;;;13.10;99.90;;;;;;4983840;28;20234;-52
2023/10/06 01:58:39;;;;;;;9.53;4.53;;;13.00;99.90;;;;;;4982699;28;20289;-54
2023/10/06 02:01:08;;;;;;;10.50;4.87;;;13.00;99.90;;;;;;4987025;28;20191;-53
2023/10/06 02:03:40;;;;;;;7.53;4.53;;;13.00;99.90;;;;;;4984014;28;20230;-52
2023/10/06 02:06:16;;;;;;;8.17;4.97;;;12.90;99.90;;;;;;4989879;28;20222;-53
2023/10/06 02:08:52;;;;;;;7.60;4.77;;;13.00;99.90;;;;;;4989280;28;20238;-52
2023/10/06 02:11:27;;;;;;;10.77;4.53;;;13.00;99.90;;;;;;4992486;28;20229;-51
2023/10/06 02:13:56;;;;;;;10.63;4.70;;;13.00;99.90;;;;;;4986843;28;20222;-53
2023/10/06 02:16:26;;;;;;;8.33;5.00;;;13.00;99.90;;;;;;4988923;28;20190;-52
2023/10/06 02:18:55;;;;;;;10.63;4.93;;;12.90;99.90;;;;;;4970255;28;20284;-52
2023/10/06 02:21:24;;;;;;;8.80;5.03;;;12.90;99.90;;;;;;4982302;28;20577;-51
2023/10/06 02:23:59;;;;;;;8.87;5.10;;;12.90;99.90;;;;;;4986256;28;20230;-53
2023/10/06 02:26:27;;;;;;;8.87;4.63;;;12.90;99.90;;;;;;4985789;28;20293;-52
2023/10/06 02:28:56;;;;;;;8.10;4.60;;;12.90;99.90;;;;;;4985010;28;20702;-52
2023/10/06 02:31:26;;;;;;;7.70;5.00;;;12.90;99.90;;;;;;4984698;28;20314;-52
2023/10/06 02:33:55;;;;;;;8.80;5.20;;;12.90;99.90;;;;;;4987373;28;20286;-52
2023/10/06 02:36:23;;;;;;;8.03;5.10;;;12.90;99.90;;;;;;4986179;28;20743;-51
2023/10/06 02:38:54;;;;;;;11.50;5.00;;;12.90;99.90;;;;;;4985970;28;20686;-54
2023/10/06 02:41:25;;;;;;;7.53;4.70;;;12.90;99.90;;;;;;4986352;28;20237;-53
2023/10/06 02:43:57;;;;;;;11.00;4.47;;;12.90;99.90;;;;;;4987809;28;20251;-52
2023/10/06 02:46:26;;;;;;;8.03;4.83;;;13.00;99.90;;;;;;4985760;28;20190;-52
2023/10/06 02:48:55;;;;;;;12.67;4.70;;;13.00;99.90;;;;;;4988549;28;20611;-55
2023/10/06 02:51:32;;;;;;;6.87;4.33;;;12.90;99.90;;;;;;4986832;28;20234;-52
2023/10/06 02:54:21;;;;;;;11.27;4.70;;;13.00;99.90;;;;;;4984158;28;20223;-53
2023/10/06 02:56:50;;;;;;;10.83;4.90;;;13.00;99.90;;;;;;4988362;28;20249;-53
2023/10/06 02:59:22;;;;;;;5.83;4.87;;;12.90;99.90;;;;;;4986595;28;20265;-53
2023/10/06 03:01:56;;;;;;;7.20;4.57;;;12.90;99.90;;;;;;4989706;28;20234;-54
2023/10/06 03:04:28;;;;;;;12.37;5.10;;;12.90;99.90;;;;;;4985726;28;20199;-52
2023/10/06 03:06:57;;;;;;;8.67;4.80;;;12.90;99.90;;;;;;4988053;28;20191;-52
2023/10/06 03:09:38;;;;;;;14.47;5.30;;;12.80;99.90;;;;;;4986358;28;20238;-54
2023/10/06 03:12:15;;;;;;;5.73;4.40;;;12.80;99.90;;;;;;4990310;28;20226;-52
2023/10/06 03:14:44;;;;;;;9.10;4.60;;;12.80;99.90;;;;;;4985039;28;20295;-54
2023/10/06 03:17:13;;;;;;;8.53;4.97;;;12.80;99.90;;;;;;4984176;28;20218;-50
2023/10/06 03:19:44;;;;;;;9.83;5.00;;;12.80;99.90;;;;;;4986134;28;20226;-55
2023/10/06 03:22:13;;;;;;;5.63;4.63;;;12.70;99.90;;;;;;4987791;28;20594;-53
2023/10/06 03:24:53;;;;;;;9.43;4.60;;;12.70;99.90;;;;;;4988001;28;20215;-52
2023/10/06 03:27:23;;;;;;;10.70;5.30;;;12.70;99.90;;;;;;4983339;28;20230;-54
2023/10/06 03:29:54;;;;;;;15.77;5.33;;;12.70;99.90;;;;;;4983829;28;20230;-53
2023/10/06 03:32:32;;;;;;;8.10;4.80;;;12.60;99.90;;;;;;4981531;28;20265;-53
2023/10/06 03:35:12;;;;;;;9.13;4.80;;;12.60;99.90;;;;;;4986598;28;20230;-55
2023/10/06 03:37:51;;;;;;;9.07;4.80;;;12.60;99.90;;;;;;4985387;28;20226;-52
2023/10/06 03:40:25;;;;;;;8.27;4.67;;;12.60;99.90;;;;;;4981142;28;20196;-54
2023/10/06 03:42:53;;;;;;;9.43;4.77;;;12.60;99.90;;;;;;4986511;28;20232;-55
2023/10/06 03:45:29;;;;;;;11.00;5.10;;;12.50;99.90;;;;;;4987631;28;20218;-55
2023/10/06 03:48:11;;;;;;;8.63;4.80;;;12.50;99.90;;;;;;4988453;28;20221;-54
2023/10/06 03:50:41;;;;;;;8.90;4.70;;;12.50;99.90;;;;;;4986491;28;20230;-53
2023/10/06 03:53:14;;;;;;;9.57;4.70;;;12.40;99.90;;;;;;4984042;28;20227;-55
2023/10/06 03:55:46;;;;;;;9.57;4.87;;;12.40;99.90;;;;;;4988872;28;20235;-55
2023/10/06 03:58:16;;;;;;;7.83;4.80;;;12.40;99.90;;;;;;4986978;28;20206;-52
2023/10/06 04:00:49;;;;;;;12.13;4.53;;;12.40;99.90;;;;;;4983152;28;20226;-54
2023/10/06 04:03:19;;;;;;;9.93;4.40;;;12.40;99.90;;;;;;4984754;28;20226;-54
2023/10/06 04:05:49;;;;;;;7.37;4.53;;;12.40;99.90;;;;;;4988483;28;20270;-51
2023/10/06 04:08:20;;;;;;;10.77;4.57;;;12.30;99.90;;;;;;4983838;28;20234;-55
2023/10/06 04:10:57;;;;;;;9.07;4.70;;;12.30;99.90;;;;;;4983554;28;20231;-52
2023/10/06 04:13:26;;;;;;;8.57;5.20;;;12.30;99.90;;;;;;4983116;28;20191;-53
2023/10/06 04:15:57;;;;;;;7.77;5.07;;;12.40;99.90;;;;;;4989260;28;20198;-54
2023/10/06 04:18:25;;;;;;;12.33;4.53;;;12.40;99.90;;;;;;4984561;28;20227;-52
2023/10/06 04:20:55;;;;;;;10.87;5.63;;;12.30;99.90;;;;;;4984105;28;20294;-53
2023/10/06 04:23:23;;;;;;;9.83;5.40;;;12.40;99.90;;;;;;4984632;28;20226;-53
2023/10/06 04:25:56;;;;;;;10.43;4.80;;;12.40;99.90;;;;;;4981935;28;20227;-50
2023/10/06 04:28:27;;;;;;;9.23;5.23;;;12.30;99.90;;;;;;4983251;28;20221;-53
2023/10/06 04:31:00;;;;;;;10.97;5.47;;;12.30;99.90;;;;;;4991508;28;20307;-52
2023/10/06 04:33:30;;;;;;;12.87;5.27;;;12.30;99.90;;;;;;4984802;28;20227;-51
2023/10/06 04:36:07;;;;;;;8.50;5.40;;;12.30;99.90;;;;;;4986235;28;20221;-53
2023/10/06 04:38:38;;;;;;;10.77;5.67;;;12.30;99.90;;;;;;4987825;28;20223;-53
2023/10/06 04:41:09;;;;;;;7.97;5.33;;;12.20;99.90;;;;;;4988102;28;20244;-55
2023/10/06 04:43:44;;;;;;;10.80;5.03;;;12.20;99.90;;;;;;4981722;28;20247;-53
2023/10/06 04:46:13;;;;;;;8.47;5.53;;;12.20;99.90;;;;;;4989664;28;20214;-54
2023/10/06 04:48:42;;;;;;;14.07;5.90;;;12.20;99.90;;;;;;4983004;28;20230;-53
2023/10/06 04:51:12;;;;;;;10.97;5.63;;;12.20;99.90;;;;;;4988336;28;20273;-51
2023/10/06 04:53:39;;;;;;;14.27;5.87;;;12.20;99.90;;;;;;4986607;28;20238;-52
2023/10/06 04:56:09;;;;;;;18.63;5.93;;;12.20;99.90;;;;;;4984367;28;20218;-50
2023/10/06 04:58:38;;;;;;;11.47;6.20;;;12.20;99.90;;;;;;4986860;28;21307;-53
2023/10/06 05:01:08;;;;;;;9.47;5.87;;;12.10;99.90;;;;;;4984737;28;20305;-51
2023/10/06 05:03:43;;;;;;;9.63;6.07;;;12.10;99.90;;;;;;4981379;28;20262;-55
2023/10/06 05:06:16;;;;;;;11.50;6.00;;;12.10;99.90;;;;;;4987302;28;20234;-49
2023/10/06 05:08:47;;;;;;;14.27;5.90;;;12.10;99.90;;;;;;4986008;28;22513;-52
2023/10/06 05:11:20;;;;;;;10.70;5.57;;;12.10;99.90;;;;;;4986179;28;20712;-52
2023/10/06 05:13:49;;;;;;;8.87;6.20;;;12.10;99.90;;;;;;4982075;28;20688;-51
2023/10/06 05:16:19;;;;;;;18.53;6.20;;;12.10;99.90;;;;;;4985060;28;20203;-52
2023/10/06 05:18:48;;;;;;;13.10;6.10;;;12.10;99.90;;;;;;4985171;28;20206;-52
2023/10/06 05:21:20;;;;;;;16.53;6.30;;;12.00;99.90;;;;;;4985206;28;20226;-50
2023/10/06 05:23:48;;;;;;;14.53;6.30;;;12.00;99.90;;;;;;4988980;28;20226;-50
2023/10/06 05:26:20;;;;;;;11.93;6.40;;;12.00;99.90;;;;;;4982889;28;20688;-52
2023/10/06 05:28:50;;;;;;;8.03;6.07;;;12.00;99.90;;;;;;4986089;28;20235;-52
2023/10/06 05:31:19;;;;;;;8.70;5.37;;;12.10;99.90;;;;;;4984897;28;20209;-51
2023/10/06 05:33:47;;;;;;;11.73;6.37;;;12.20;99.90;;;;;;4984266;28;20550;-53
2023/10/06 05:36:15;;;;;;;11.40;6.20;;;12.10;99.90;;;;;;4984211;28;20254;-54
2023/10/06 05:38:49;;;;;;;11.53;6.00;;;12.20;99.90;;;;;;4984245;28;20247;-53
2023/10/06 05:41:19;;;;;;;15.53;6.43;;;12.20;99.90;;;;;;4982229;28;20308;-53
2023/10/06 05:43:48;;;;;;;10.37;6.13;;;12.20;99.90;;;;;;4992067;28;20223;-51
2023/10/06 05:46:17;;;;;;;11.20;5.67;;;12.20;99.90;;;;;;4987026;28;20201;-54
2023/10/06 05:48:46;;;;;;;11.73;5.73;;;12.30;99.90;;;;;;4986749;28;20686;-53
2023/10/06 05:51:21;;;;;;;11.13;5.73;;;12.20;99.90;;;;;;5001843;28;20306;-54
2023/10/06 05:53:51;;;;;;;10.80;6.47;;;12.20;99.90;;;;;;4987055;28;20248;-54
2023/10/06 05:56:23;;;;;;;13.13;6.00;;;12.30;99.90;;;;;;4987918;28;20234;-53
2023/10/06 05:58:51;;;;;;;10.63;6.50;;;12.30;99.90;;;;;;4984243;28;20264;-51
2023/10/06 06:01:21;;;;;;;12.50;6.30;;;12.30;99.90;;;;;;4972366;28;20194;-52
2023/10/06 06:03:51;;;;;;;8.27;5.90;;;12.30;99.90;;;;;;4984679;28;20273;-54
2023/10/06 06:06:24;;;;;;;11.70;6.13;;;12.30;99.90;;;;;;4988498;28;20318;-52
2023/10/06 06:08:52;;;;;;;10.23;5.80;;;12.30;99.90;;;;;;4986374;28;20585;-54
2023/10/06 06:11:22;;;;;;;9.60;6.20;;;12.30;99.90;;;;;;4987185;28;20258;-53
2023/10/06 06:13:51;;;;;;;15.23;6.20;;;12.40;99.90;;;;;;4973033;28;20231;-53
2023/10/06 06:16:34;;;;;;;11.20;6.20;;;12.40;99.90;;;;;;4987044;28;20571;-53
2023/10/06 06:19:05;;;;;;;13.60;7.10;;;12.40;99.90;;;;;;4990003;28;20435;-52
2023/10/06 06:21:34;;;;;;;16.20;6.77;;;12.40;99.90;;;;;;4990366;28;20226;-51
2023/10/06 06:24:05;;;;;;;11.77;6.07;;;12.40;99.90;;;;;;4987336;28;20285;-53
2023/10/06 06:26:37;;;;;;;12.30;5.83;;;12.50;99.90;;;;;;4987967;28;20233;-53
2023/10/06 06:29:05;;;;;;;12.33;6.20;;;12.60;99.90;;;;;;4986978;28;20314;-54
2023/10/06 06:31:34;;;;;;;12.67;6.07;;;12.60;99.90;;;;;;4988843;28;20202;-49
2023/10/06 06:34:04;;;;;;;14.50;5.93;;;12.60;99.90;;;;;;4972782;28;20200;-54
2023/10/06 06:36:33;;;;;;;11.10;6.30;;;12.70;99.90;;;;;;4989796;28;20265;-54
2023/10/06 06:39:03;;;;;;;10.43;5.97;;;12.70;99.90;;;;;;4991060;28;20306;-54
2023/10/06 06:41:33;;;;;;;16.87;6.20;;;12.80;99.90;;;;;;4989749;28;20216;-54
2023/10/06 06:44:03;;;;;;;10.97;5.90;;;12.80;99.90;;;;;;4984187;28;20223;-54
2023/10/06 06:46:31;;;;;;;15.10;5.73;;;12.80;99.90;;;;;;4988853;28;20190;-52
2023/10/06 06:49:01;;;;;;;8.30;5.53;;;12.90;99.90;;;;;;4986253;28;20654;-51
2023/10/06 06:51:30;;;;;;;11.67;5.70;;;13.00;99.90;;;;;;4988829;28;20233;-53
2023/10/06 06:54:02;;;;;;;10.30;5.90;;;13.00;99.90;;;;;;4987331;28;20765;-54
2023/10/06 06:56:32;;;;;;;10.47;6.17;;;13.00;99.90;;;;;;4990030;28;20286;-54
2023/10/06 06:59:07;;;;;;;11.73;5.97;;;13.10;99.90;;;;;;4989997;28;20230;-55
2023/10/06 07:01:39;;;;;;;10.98;6.20;;;13.20;99.90;;;;;;4983180;28;20412;-55
2023/10/06 07:04:14;;;;;;;14.77;6.13;;;13.30;99.90;;;;;;4986017;28;20215;-57
2023/10/06 07:06:44;;;;;;;7.97;5.50;;;13.40;99.90;;;;;;4988962;28;20211;-51
2023/10/06 07:09:13;;;;;;;14.27;5.93;;;13.40;99.90;;;;;;4999655;28;20330;-52
2023/10/06 07:11:42;;;;;;;15.83;6.20;;;13.60;99.90;;;;;;5004420;28;20328;-52
2023/10/06 07:14:14;;;;;;;14.70;5.73;;;13.60;99.90;;;;;;5005915;28;20650;-52
2023/10/06 07:16:43;;;;;;;12.33;5.30;;;13.70;99.90;;;;;;5000806;28;20238;-50
2023/10/06 07:19:14;;;;;;;12.03;5.50;;;13.70;99.90;;;;;;5007573;28;20223;-51
2023/10/06 07:21:43;;;;;;;14.23;5.87;;;13.70;99.90;;;;;;5003714;28;20579;-50
2023/10/06 07:24:13;;;;;;;8.93;5.50;;;13.80;99.90;;;;;;5005031;28;20236;-52
2023/10/06 07:26:42;;;;;;;9.33;5.47;;;13.80;99.90;;;;;;5005704;28;20226;-52
2023/10/06 07:29:14;;;;;;;13.00;4.97;;;13.80;99.90;;;;;;5006112;28;20223;-50
2023/10/06 07:31:42;;;;;;;11.57;5.37;;;13.80;99.90;;;;;;5006986;28;20235;-52
2023/10/06 07:34:11;;;;;;;10.07;5.47;;;13.90;99.90;;;;;;5006164;28;20223;-52
2023/10/06 07:36:40;;;;;;;11.43;4.93;;;13.90;99.90;;;;;;5002435;28;20327;-52
2023/10/06 07:39:15;;;;;;;12.87;5.90;;;13.90;99.90;;;;;;4998901;28;20224;-50
2023/10/06 07:41:43;;;;;;;15.33;6.37;;;14.00;99.90;;;;;;4989519;28;20222;-54
2023/10/06 07:44:14;;;;;;;12.80;4.97;;;14.10;99.90;;;;;;5007646;28;20218;-51
2023/10/06 07:46:42;;;;;;;11.37;5.17;;;14.20;99.90;;;;;;5005907;28;20241;-51
2023/10/06 07:49:11;;;;;;;15.37;5.20;;;14.30;99.90;;;;;;5007147;28;20625;-52
2023/10/06 07:51:40;;;;;;;11.83;5.20;;;14.40;99.90;;;;;;5009311;28;20225;-53
2023/10/06 07:54:08;;;;;;;12.00;5.00;;;14.40;99.90;;;;;;5005689;28;20317;-52
2023/10/06 07:56:36;;;;;;;8.37;5.17;;;14.50;99.90;;;;;;5001736;28;20249;-53
2023/10/06 07:59:07;;;;;;;9.23;5.00;;;14.50;99.90;;;;;;5000744;28;20746;-52
2023/10/06 08:01:38;;;;;;;13.00;4.73;;;14.50;99.90;;;;;;5005889;28;20564;-53
2023/10/06 08:04:07;;;;;;;12.90;5.57;;;14.40;99.90;;;;;;5002620;28;20197;-51
2023/10/06 08:06:36;;;;;;;13.80;5.33;;;14.40;99.90;;;;;;5005730;28;20214;-53
2023/10/06 08:09:05;;;;;;;10.90;5.37;;;14.50;99.90;;;;;;4992158;28;20336;-52
2023/10/06 08:11:34;;;;;;;11.67;5.20;;;14.60;99.90;;;;;;4987760;28;20224;-48
2023/10/06 08:14:03;;;;;;;8.67;5.10;;;14.70;99.90;;;;;;4982906;28;20243;-53
2023/10/06 08:16:31;;;;;;;13.10;5.33;;;14.80;99.90;;;;;;4983379;28;20315;-52
2023/10/06 08:19:01;;;;;;;12.90;5.27;;;14.90;99.90;;;;;;4983339;28;20196;-52
2023/10/06 08:21:30;;;;;;;14.20;5.27;;;14.90;99.90;;;;;;4988321;28;20226;-54
2023/10/06 08:23:58;;;;;;;9.83;4.83;;;15.00;99.90;;;;;;4984681;28;20605;-54
2023/10/06 08:26:27;;;;;;;9.40;4.90;;;15.10;99.90;;;;;;4987913;28;20691;-54
2023/10/06 08:28:56;;;;;;;13.53;5.97;;;15.30;99.90;;;;;;4986308;28;20614;-53
2023/10/06 08:31:26;;;;;;;16.40;5.60;;;15.30;99.90;;;;;;4985817;28;20196;-51
2023/10/06 08:33:54;;;;;;;8.93;5.20;;;15.30;99.90;;;;;;4989659;28;20217;-50
2023/10/06 08:36:25;;;;;;;12.30;5.38;;;15.40;99.90;;;;;;5000502;28;20541;-53
2023/10/06 08:38:53;;;;;;;7.37;4.73;;;15.40;99.90;;;;;;4987208;28;20318;-53
2023/10/06 08:41:27;;;;;;;11.40;5.47;;;15.40;99.90;;;;;;4986691;28;20326;-52
2023/10/06 08:44:01;;;;;;;11.70;5.27;;;15.60;99.90;;;;;;4983140;28;20325;-53
2023/10/06 08:46:33;;;;;;;12.40;5.30;;;15.60;99.90;;;;;;4988920;28;20187;-52
2023/10/06 08:49:02;;;;;;;11.50;5.47;;;15.60;99.90;;;;;;4981780;28;20272;-55
2023/10/06 08:51:33;;;;;;;13.23;5.47;;;15.70;99.90;;;;;;4963900;28;20286;-53
2023/10/06 08:54:04;;;;;;;8.03;5.30;;;15.70;99.90;;;;;;4984243;28;20252;-54
2023/10/06 08:56:34;;;;;;;11.67;4.87;;;15.80;99.90;;;;;;4983933;28;20236;-54
2023/10/06 08:59:02;;;;;;;10.23;5.03;;;15.90;99.90;;;;;;4983753;28;20231;-54
2023/10/06 09:01:32;;;;;;;9.70;5.20;;;15.90;99.90;;;;;;4983257;28;20243;-53
2023/10/06 09:04:04;;;;;;;10.57;5.13;;;16.10;99.90;;;;;;4986476;28;20194;-56
2023/10/06 09:06:35;;;;;;;17.67;6.10;;;16.10;99.90;;;;;;4983168;28;20228;-54
2023/10/06 09:09:05;;;;;;;7.63;5.00;;;16.10;99.90;;;;;;4982802;28;20232;-53
2023/10/06 09:11:40;;;;;;;13.03;5.20;;;16.30;99.90;;;;;;4985904;28;21007;-54
2023/10/06 09:14:11;;;;;;;8.33;4.83;;;16.50;99.90;;;;;;4981124;28;20239;-55
2023/10/06 09:16:50;;;;;;;11.07;5.50;;;16.60;99.90;;;;;;4985064;28;20776;-53
2023/10/06 09:19:20;;;;;;;12.40;5.67;;;16.70;99.90;;;;;;4986435;28;20282;-53
2023/10/06 09:22:04;;;;;;;13.13;5.40;;;16.60;99.90;;;;;;4983901;28;20293;-50
2023/10/06 09:24:34;;;;;;;13.20;5.13;;;16.60;99.90;;;;;;4982963;28;20304;-52
2023/10/06 09:27:20;;;;;;;11.93;4.90;;;16.80;99.90;;;;;;4987400;28;20221;-55
2023/10/06 09:29:58;;;;;;;11.43;4.67;;;16.80;99.90;;;;;;4984964;28;20229;-53
2023/10/06 09:32:26;;;;;;;13.33;4.90;;;16.80;99.90;;;;;;4983347;28;20278;-52
2023/10/06 09:34:57;;;;;;;7.40;4.63;;;16.80;99.90;;;;;;4982186;28;20230;-54
2023/10/06 09:37:27;;;;;;;9.67;4.87;;;16.80;99.90;;;;;;4982852;28;20200;-50
2023/10/06 09:40:10;;;;;;;10.00;4.90;;;16.80;57.50;;;;;;4985959;28;20221;-52
2023/10/06 09:42:41;;;;;;;8.60;4.80;;;16.80;45.20;;;;;;4986457;28;20269;-51
2023/10/06 09:45:15;;;;;;;10.30;5.00;;;16.90;47.50;;;;;;4981643;28;20633;-54
2023/10/06 09:47:50;;;;;;;15.40;5.13;;;17.10;48.50;;;;;;4984164;28;20237;-54
2023/10/06 09:50:20;;;;;;;9.33;4.87;;;17.40;23.30;;;;;;4984541;28;20313;-52
2023/10/06 09:52:52;;;;;;;8.47;4.77;;;17.50;27.10;;;;;;4958299;28;20708;-52
2023/10/06 09:55:22;;;;;;;8.87;4.67;;;17.50;24.50;;;;;;4984654;28;20225;-50
2023/10/06 09:57:51;;;;;;;12.63;4.63;;;17.50;4.50;;;;;;4988317;28;20226;-52
2023/10/06 10:00:21;;;;;;;6.83;4.67;;;17.40;1.00;;;;;;4980867;28;20875;-50
2023/10/06 10:02:50;;;;;;;10.27;5.00;;;17.40;1.00;;;;;;4986112;28;20234;-49
2023/10/06 10:05:20;;;;;;;12.10;4.77;;;17.50;1.00;;;;;;4983144;28;20242;-51
2023/10/06 10:07:50;;;;;;;12.40;4.80;;;17.70;1.00;;;;;;4983586;28;20638;-50
2023/10/06 10:10:22;;;;;;;7.97;4.23;;;17.80;1.00;;;;;;4981846;28;20707;-52
2023/10/06 10:13:12;;;;;;;7.83;4.30;;;17.90;1.00;;;;;;4982373;28;20199;-52
2023/10/06 10:15:53;;;;;;;8.07;4.50;;;17.80;1.00;;;;;;4981243;28;20223;-52
2023/10/06 10:18:29;;;;;;;7.20;4.47;;;18.00;1.00;;;;;;4986829;28;20233;-49
2023/10/06 10:20:59;;;;;;;9.83;4.00;;;18.30;1.00;;;;;;4983070;28;20262;-51
2023/10/06 10:23:31;;;;;;;10.87;4.40;;;18.50;1.00;;;;;;4987854;28;20265;-50
2023/10/06 10:26:13;;;;;;;9.27;4.20;;;18.70;1.00;;;;;;4988247;28;20235;-53
2023/10/06 10:28:43;;;;;;;8.73;3.90;;;18.80;1.00;;;;;;4993961;28;20230;-51
2023/10/06 10:31:17;;;;;;;8.50;3.50;;;18.90;1.00;;;;;;4988823;28;20269;-51
2023/10/06 10:33:48;;;;;;;8.17;3.80;;;19.00;1.00;;;;;;4985884;28;20222;-50
2023/10/06 10:36:23;;;;;;;10.33;4.20;;;19.10;1.00;;;;;;4985054;28;20226;-49
2023/10/06 10:39:04;;;;;;;10.47;3.80;;;19.00;99.90;;;;;;4985072;28;20222;-52
2023/10/06 10:41:37;;;;;;;7.23;3.40;;;18.90;99.90;;;;;;4987814;28;20226;-51
2023/10/06 10:44:07;;;;;;;8.80;3.70;;;19.00;99.90;;;;;;4985201;28;20235;-51
2023/10/06 10:46:54;;;;;;;8.87;3.43;;;19.00;99.90;;;;;;4988179;28;20234;-51
2023/10/06 10:49:22;;;;;;;7.07;3.47;;;19.00;99.90;;;;;;5004305;28;20282;-51
2023/10/06 10:51:54;;;;;;;10.83;3.43;;;19.10;99.90;;;;;;4989001;28;20195;-51
2023/10/06 10:54:27;;;;;;;10.20;3.90;;;19.00;99.90;;;;;;5001358;28;20282;-52
2023/10/06 10:57:02;;;;;;;7.50;3.40;;;19.00;99.90;;;;;;4993801;28;20661;-52
2023/10/06 11:00:12;;;;;;;7.27;3.60;;;19.10;99.90;;;;;;4987595;28;20229;-53
2023/10/06 11:02:42;;;;;;;6.30;3.13;;;19.20;99.90;;;;;;4984428;28;20226;-49
2023/10/06 11:05:11;;;;;;;8.43;3.50;;;19.50;99.90;;;;;;4986527;28;20226;-52
2023/10/06 11:07:41;;;;;;;6.03;3.20;;;19.70;99.90;;;;;;4986031;28;20282;-52
2023/10/06 11:10:16;;;;;;;7.53;3.60;;;19.80;99.90;;;;;;4987384;28;20550;-52
2023/10/06 11:12:45;;;;;;;6.63;3.57;;;19.80;99.90;;;;;;4985514;28;20225;-49
2023/10/06 11:15:27;;;;;;;10.97;3.93;;;19.80;99.90;;;;;;4982429;28;20226;-53
2023/10/06 11:17:58;;;;;;;9.00;3.53;;;19.80;99.90;;;;;;4983212;28;20233;-54
2023/10/06 11:20:36;;;;;;;6.07;3.53;;;19.80;99.90;;;;;;4987564;28;20237;-53
2023/10/06 11:23:04;;;;;;;6.00;3.17;;;19.90;99.90;;;;;;4983468;28;20218;-54
2023/10/06 11:25:36;;;;;;;6.27;3.40;;;19.90;99.90;;;;;;4986671;28;20225;-52
2023/10/06 11:28:08;;;;;;;9.17;3.97;;;20.00;99.90;;;;;;4984322;28;20204;-53
2023/10/06 11:30:40;;;;;;;8.90;3.40;;;19.90;99.90;;;;;;4981563;28;20234;-54
2023/10/06 11:33:11;;;;;;;6.53;3.17;;;19.90;99.90;;;;;;4984558;28;20246;-54
2023/10/06 11:35:41;;;;;;;5.63;3.30;;;19.90;99.90;;;;;;4986854;28;20293;-52
2023/10/06 11:38:12;;;;;;;8.37;3.73;;;19.80;99.90;;;;;;4981779;28;20234;-53
2023/10/06 11:40:43;;;;;;;10.80;3.70;;;19.90;99.90;;;;;;4984081;28;20269;-54
2023/10/06 11:43:12;;;;;;;7.10;3.40;;;20.00;99.90;;;;;;4983078;28;20257;-54
2023/10/06 11:45:42;;;;;;;13.10;3.90;;;20.10;99.90;;;;;;4986326;28;20223;-54
2023/10/06 11:48:25;;;;;;;7.03;3.60;;;20.20;99.90;;;;;;4987237;28;20311;-53
2023/10/06 11:51:00;;;;;;;9.10;3.17;;;20.20;99.90;;;;;;4987290;28;20253;-54
2023/10/06 11:53:29;;;;;;;9.80;3.93;;;20.20;99.90;;;;;;4987532;28;20214;-52
2023/10/06 11:56:11;;;;;;;7.10;3.50;;;20.20;99.90;;;;;;4983470;28;20724;-53
2023/10/06 11:58:40;;;;;;;11.60;3.90;;;20.30;99.90;;;;;;4982995;28;20230;-54
2023/10/06 12:01:28;;;;;;;12.63;3.47;;;20.50;99.90;;;;;;4986955;28;20286;-52
2023/10/06 12:03:59;;;;;;;8.37;3.83;;;20.70;99.90;;;;;;4984897;28;20239;-55
2023/10/06 12:06:38;;;;;;;8.60;3.63;;;20.80;99.90;;;;;;4985342;28;20577;-52
2023/10/06 12:09:08;;;;;;;7.27;3.27;;;20.70;99.90;;;;;;4995848;28;20241;-54
2023/10/06 12:11:39;;;;;;;11.70;4.10;;;20.70;99.90;;;;;;5003573;28;20229;-52
2023/10/06 12:14:08;;;;;;;7.93;3.87;;;20.80;99.90;;;;;;5006273;28;20239;-54
2023/10/06 12:16:36;;;;;;;11.43;3.60;;;20.80;99.90;;;;;;5004309;28;20249;-53
2023/10/06 12:19:05;;;;;;;10.13;4.10;;;20.80;99.90;;;;;;5001669;28;20657;-53
2023/10/06 12:21:35;;;;;;;10.10;3.70;;;20.70;99.90;;;;;;5001245;28;20589;-54
2023/10/06 12:24:04;;;;;;;7.87;3.60;;;20.70;99.90;;;;;;5007278;28;20218;-51
2023/10/06 12:26:33;;;;;;;9.30;4.03;;;20.60;99.90;;;;;;5004651;28;20236;-53
2023/10/06 12:29:03;;;;;;;11.53;3.60;;;20.60;99.90;;;;;;5001037;28;20356;-54
2023/10/06 12:31:31;;;;;;;7.87;3.43;;;20.50;99.90;;;;;;5002451;28;20556;-53
2023/10/06 12:34:03;;;;;;;7.17;3.40;;;20.50;99.90;;;;;;4991351;28;20229;-52
2023/10/06 12:36:35;;;;;;;6.10;3.13;;;20.50;99.90;;;;;;5006272;28;20214;-52
2023/10/06 12:39:05;;;;;;;8.83;3.30;;;20.50;99.90;;;;;;5004438;28;20231;-54
2023/10/06 12:41:34;;;;;;;10.57;3.57;;;20.40;99.90;;;;;;5003843;28;20242;-51
2023/10/06 12:44:04;;;;;;;14.10;3.57;;;20.50;99.90;;;;;;5002143;28;20735;-53
2023/10/06 12:46:37;;;;;;;9.43;3.93;;;20.60;99.90;;;;;;5002652;28;20179;-51
2023/10/06 12:49:06;;;;;;;7.77;3.30;;;20.60;99.90;;;;;;4988348;28;20565;-53
2023/10/06 12:51:36;;;;;;;10.23;4.00;;;20.60;99.90;;;;;;5005021;28;20222;-53
2023/10/06 12:54:06;;;;;;;7.10;3.63;;;20.60;99.90;;;;;;5001163;28;20226;-55
2023/10/06 12:56:36;;;;;;;10.30;3.70;;;20.60;99.90;;;;;;5006174;28;20324;-53
2023/10/06 12:59:06;;;;;;;7.10;3.70;;;20.80;99.90;;;;;;5005765;28;20227;-53
2023/10/06 13:01:34;;;;;;;8.50;4.10;;;20.90;99.90;;;;;;5003768;28;20551;-49
2023/10/06 13:04:03;;;;;;;7.07;3.30;;;20.90;99.90;;;;;;5005507;28;20276;-51
2023/10/06 13:06:32;;;;;;;9.63;3.00;;;21.00;99.90;;;;;;5004794;28;20313;-53